createdAt,value
2022-10-15T00:00:21.383Z,7.90
2022-10-15T00:03:08.890Z,7.90
2022-10-15T00:05:56.563Z,8.00
2022-10-15T00:08:44.586Z,8.10
2022-10-15T00:11:32.607Z,8.20
2022-10-15T00:14:21.333Z,8.30
2022-10-15T00:17:09.367Z,8.30
2022-10-15T00:19:56.868Z,8.40
2022-10-15T00:22:44.889Z,8.40
2022-10-15T00:25:32.601Z,8.40
2022-10-15T00:28:20.624Z,8.40
2022-10-15T00:31:14.068Z,8.40
2022-10-15T00:34:03.370Z,8.30
2022-10-15T00:36:52.118Z,8.30
2022-10-15T00:39:39.898Z,8.20
2022-10-15T00:42:27.574Z,8.20
2022-10-15T00:45:17.500Z,8.10
2022-10-15T00:48:09.098Z,8.10
2022-10-15T00:50:57.229Z,8.00
2022-10-15T00:53:45.375Z,8.00
2022-10-15T00:56:36.168Z,8.00
2022-10-15T00:59:28.508Z,8.00
2022-10-15T01:02:18.636Z,8.00
2022-10-15T01:05:09.498Z,8.00
2022-10-15T01:07:58.848Z,8.00
2022-10-15T01:10:54.931Z,8.00
2022-10-15T01:13:55.068Z,7.90
2022-10-15T01:16:48.515Z,7.90
2022-10-15T01:20:05.823Z,7.80
2022-10-15T01:23:09.377Z,7.80
2022-10-15T01:26:09.407Z,7.90
2022-10-15T01:29:08.075Z,7.90
2022-10-15T01:32:04.874Z,8.00
2022-10-15T01:34:57.274Z,8.10
2022-10-15T01:37:53.952Z,8.20
2022-10-15T01:40:48.960Z,8.20
2022-10-15T01:43:40.208Z,8.30
2022-10-15T01:47:04.735Z,8.30
2022-10-15T01:49:56.288Z,8.40
2022-10-15T01:52:46.151Z,8.30
2022-10-15T01:55:35.858Z,8.30
2022-10-15T01:58:26.056Z,8.30
2022-10-15T02:01:14.362Z,8.20
2022-10-15T02:04:03.520Z,8.20
2022-10-15T02:06:56.841Z,8.20
2022-10-15T02:09:51.795Z,8.20
2022-10-15T02:12:52.090Z,8.30
2022-10-15T02:15:47.166Z,8.30
2022-10-15T02:18:41.353Z,8.30
2022-10-15T02:21:34.290Z,8.20
2022-10-15T02:24:26.591Z,8.20
2022-10-15T02:27:17.252Z,8.20
2022-10-15T02:30:09.079Z,8.20
2022-10-15T02:32:59.338Z,8.20
2022-10-15T02:35:49.745Z,8.20
2022-10-15T02:38:41.909Z,8.20
2022-10-15T02:41:31.234Z,8.20
2022-10-15T02:44:19.152Z,8.20
2022-10-15T02:47:07.133Z,8.20
2022-10-15T02:49:54.639Z,8.30
2022-10-15T02:52:42.629Z,8.40
2022-10-15T02:55:33.721Z,8.50
2022-10-15T02:58:21.910Z,8.50
2022-10-15T03:01:09.901Z,8.60
2022-10-15T03:03:57.123Z,8.70
2022-10-15T03:06:44.846Z,8.70
2022-10-15T03:09:33.628Z,8.70
2022-10-15T03:12:26.088Z,8.60
2022-10-15T03:15:14.734Z,8.70
2022-10-15T03:18:04.965Z,8.70
2022-10-15T03:20:55.894Z,8.70
2022-10-15T03:23:43.953Z,8.80
2022-10-15T03:26:38.315Z,8.80
2022-10-15T03:29:27.456Z,8.80
2022-10-15T03:32:20.826Z,8.90
2022-10-15T03:35:09.473Z,8.90
2022-10-15T03:37:57.980Z,9.00
2022-10-15T03:40:46.597Z,9.00
2022-10-15T03:43:51.446Z,9.00
2022-10-15T03:46:40.821Z,9.10
2022-10-15T03:49:29.156Z,9.20
2022-10-15T03:52:17.580Z,9.20
2022-10-15T03:55:09.575Z,9.20
2022-10-15T03:57:57.871Z,9.20
2022-10-15T04:00:46.242Z,9.20
2022-10-15T04:03:35.111Z,9.30
2022-10-15T04:06:22.921Z,9.30
2022-10-15T04:09:12.534Z,9.30
2022-10-15T04:12:00.553Z,9.20
2022-10-15T04:14:48.519Z,9.20
2022-10-15T04:17:36.306Z,9.10
2022-10-15T04:20:25.386Z,9.10
2022-10-15T04:23:13.355Z,9.10
2022-10-15T04:26:04.862Z,9.10
2022-10-15T04:28:53.095Z,9.10
2022-10-15T04:31:43.043Z,9.10
2022-10-15T04:34:33.439Z,9.10
2022-10-15T04:37:23.217Z,9.20
2022-10-15T04:40:13.570Z,9.20
2022-10-15T04:43:01.830Z,9.30
2022-10-15T04:45:50.188Z,9.30
2022-10-15T04:48:43.002Z,9.30
2022-10-15T04:51:33.859Z,9.40
2022-10-15T04:54:28.381Z,9.40
2022-10-15T04:57:27.156Z,9.40
2022-10-15T05:00:15.469Z,9.30
2022-10-15T05:03:03.076Z,9.30
2022-10-15T05:06:03.092Z,9.30
2022-10-15T05:08:51.577Z,9.30
2022-10-15T05:11:47.739Z,9.30
2022-10-15T05:14:35.827Z,9.30
2022-10-15T05:17:30.938Z,9.30
2022-10-15T05:20:19.946Z,9.30
2022-10-15T05:23:07.666Z,9.40
2022-10-15T05:25:56.777Z,9.40
2022-10-15T05:28:48.207Z,9.40
2022-10-15T05:31:45.031Z,9.40
2022-10-15T05:34:38.264Z,9.40
2022-10-15T05:37:32.141Z,9.50
2022-10-15T05:40:22.084Z,9.50
2022-10-15T05:43:30.055Z,9.60
2022-10-15T05:46:20.744Z,9.70
2022-10-15T05:49:08.795Z,9.70
2022-10-15T05:52:07.217Z,9.80
2022-10-15T05:55:16.964Z,9.80
2022-10-15T05:58:05.429Z,9.90
2022-10-15T06:00:56.223Z,9.90
2022-10-15T06:03:45.937Z,9.90
2022-10-15T06:06:33.921Z,10.00
2022-10-15T06:09:21.592Z,10.00
2022-10-15T06:12:09.371Z,10.10
2022-10-15T06:14:56.841Z,10.10
2022-10-15T06:17:44.505Z,10.20
2022-10-15T06:20:34.112Z,10.20
2022-10-15T06:23:24.363Z,10.30
2022-10-15T06:26:12.497Z,10.40
2022-10-15T06:29:02.681Z,10.50
2022-10-15T06:31:50.456Z,10.60
2022-10-15T06:34:38.303Z,10.70
2022-10-15T06:37:27.515Z,10.70
2022-10-15T06:40:17.035Z,10.80
2022-10-15T06:43:08.035Z,10.90
2022-10-15T06:45:56.597Z,11.00
2022-10-15T06:48:44.253Z,11.00
2022-10-15T06:51:31.952Z,11.10
2022-10-15T06:54:21.258Z,11.10
2022-10-15T06:57:09.201Z,11.20
2022-10-15T06:59:57.219Z,11.20
2022-10-15T07:02:44.996Z,11.30
2022-10-15T07:05:34.960Z,11.30
2022-10-15T07:08:22.200Z,11.40
2022-10-15T07:11:11.502Z,11.40
2022-10-15T07:13:59.306Z,11.60
2022-10-15T07:16:47.197Z,11.70
2022-10-15T07:19:34.947Z,11.90
2022-10-15T07:22:22.885Z,12.00
2022-10-15T07:25:11.778Z,12.20
2022-10-15T07:28:00.724Z,12.20
2022-10-15T07:30:48.289Z,12.30
2022-10-15T07:33:36.824Z,12.40
2022-10-15T07:36:24.456Z,12.40
2022-10-15T07:39:12.416Z,12.50
2022-10-15T07:42:00.827Z,12.50
2022-10-15T07:44:49.981Z,12.60
2022-10-15T07:47:38.165Z,12.70
2022-10-15T07:50:29.231Z,12.80
2022-10-15T07:53:22.691Z,12.90
2022-10-15T07:56:16.120Z,13.10
2022-10-15T07:59:03.812Z,13.20
2022-10-15T08:01:52.926Z,13.40
2022-10-15T08:04:40.750Z,13.50
2022-10-15T08:07:28.646Z,13.60
2022-10-15T08:10:16.430Z,13.70
2022-10-15T08:13:04.020Z,13.80
2022-10-15T08:15:53.836Z,13.90
2022-10-15T08:18:43.908Z,14.00
2022-10-15T08:21:31.872Z,14.10
2022-10-15T08:24:19.616Z,14.20
2022-10-15T08:27:09.653Z,14.40
2022-10-15T08:29:57.933Z,14.50
2022-10-15T08:32:45.333Z,14.70
2022-10-15T08:35:35.446Z,14.90
2022-10-15T08:38:23.625Z,15.00
2022-10-15T08:41:23.442Z,15.10
2022-10-15T08:44:20.699Z,15.30
2022-10-15T08:47:14.507Z,15.40
2022-10-15T08:50:07.596Z,15.60
2022-10-15T08:52:59.624Z,15.60
2022-10-15T08:55:52.041Z,15.60
2022-10-15T08:58:47.704Z,15.60
2022-10-15T09:01:41.354Z,15.60
2022-10-15T09:04:35.645Z,15.50
2022-10-15T09:07:33.312Z,15.50
2022-10-15T09:10:33.328Z,15.50
2022-10-15T09:13:27.232Z,15.40
2022-10-15T09:16:18.456Z,15.40
2022-10-15T09:19:12.963Z,15.40
2022-10-15T09:22:03.383Z,15.40
2022-10-15T09:24:51.083Z,15.40
2022-10-15T09:27:40.267Z,15.40
2022-10-15T09:30:34.818Z,15.30
2022-10-15T09:33:34.279Z,15.30
2022-10-15T09:36:34.947Z,15.30
2022-10-15T09:39:42.676Z,15.30
2022-10-15T09:42:33.479Z,15.30
2022-10-15T09:45:25.241Z,15.30
2022-10-15T09:48:19.979Z,15.40
2022-10-15T09:51:19.489Z,15.40
2022-10-15T09:54:16.242Z,15.40
2022-10-15T09:57:04.162Z,15.40
2022-10-15T09:59:57.000Z,15.40
2022-10-15T10:02:46.263Z,15.50
2022-10-15T10:05:37.566Z,15.50
2022-10-15T10:08:26.958Z,15.50
2022-10-15T10:11:15.479Z,15.50
2022-10-15T10:14:06.052Z,15.50
2022-10-15T10:17:16.660Z,15.60
2022-10-15T10:20:16.394Z,15.70
2022-10-15T10:23:22.348Z,15.70
2022-10-15T10:26:12.557Z,15.80
2022-10-15T10:29:09.996Z,15.80
2022-10-15T10:32:12.367Z,15.70
2022-10-15T10:35:01.003Z,15.70
2022-10-15T10:37:50.409Z,15.80
2022-10-15T10:40:38.067Z,15.90
2022-10-15T10:43:34.354Z,15.90
2022-10-15T10:46:26.036Z,15.90
2022-10-15T10:49:13.726Z,15.90
2022-10-15T10:52:01.793Z,16.00
2022-10-15T10:54:58.937Z,16.10
2022-10-15T10:57:54.780Z,16.10
2022-10-15T11:00:45.501Z,16.20
2022-10-15T11:03:37.273Z,16.30
2022-10-15T11:06:42.217Z,16.30
2022-10-15T11:09:43.318Z,16.40
2022-10-15T11:12:51.554Z,16.50
2022-10-15T11:15:47.178Z,16.60
2022-10-15T11:18:54.429Z,16.70
2022-10-15T11:21:53.020Z,16.90
2022-10-15T11:24:49.149Z,17.00
2022-10-15T11:28:04.398Z,17.20
2022-10-15T11:31:00.987Z,17.40
2022-10-15T11:33:59.743Z,17.70
2022-10-15T11:36:54.862Z,17.90
2022-10-15T11:40:04.369Z,18.10
2022-10-15T11:42:59.440Z,18.30
2022-10-15T11:45:55.900Z,18.30
2022-10-15T11:48:48.574Z,18.40
2022-10-15T11:51:43.709Z,18.60
2022-10-15T11:54:32.848Z,18.70
2022-10-15T11:57:25.931Z,18.60
2022-10-15T12:00:20.481Z,18.70
2022-10-15T12:03:12.232Z,18.80
2022-10-15T12:06:06.450Z,18.70
2022-10-15T12:08:54.613Z,18.70
2022-10-15T12:11:46.914Z,18.60
2022-10-15T12:14:39.786Z,18.70
2022-10-15T12:17:32.995Z,18.80
2022-10-15T12:20:21.726Z,18.80
2022-10-15T12:23:22.521Z,18.80
2022-10-15T12:26:29.456Z,18.80
2022-10-15T12:29:22.170Z,18.60
2022-10-15T12:32:21.907Z,18.50
2022-10-15T12:38:19.328Z,18.30
2022-10-15T12:41:08.230Z,18.30
2022-10-15T12:44:05.939Z,18.40
2022-10-15T12:46:53.480Z,18.50
2022-10-15T12:49:48.121Z,18.60
2022-10-15T12:52:57.412Z,18.60
2022-10-15T12:55:44.895Z,18.70
2022-10-15T12:58:35.732Z,18.60
2022-10-15T13:01:30.219Z,18.50
2022-10-15T13:04:20.838Z,18.50
2022-10-15T13:07:14.894Z,18.50
2022-10-15T13:10:05.413Z,18.60
2022-10-15T13:12:55.098Z,18.70
2022-10-15T13:15:43.330Z,18.70
2022-10-15T13:18:32.371Z,18.70
2022-10-15T13:21:20.420Z,18.70
2022-10-15T13:24:13.409Z,18.70
2022-10-15T13:27:05.632Z,18.80
2022-10-15T13:29:57.372Z,18.80
2022-10-15T13:32:47.303Z,18.70
2022-10-15T13:35:40.175Z,18.80
2022-10-15T13:38:28.977Z,18.70
2022-10-15T13:41:16.561Z,18.80
2022-10-15T13:44:05.876Z,18.70
2022-10-15T13:46:53.275Z,18.60
2022-10-15T13:49:40.937Z,18.50
2022-10-15T13:52:28.643Z,18.40
2022-10-15T13:55:23.148Z,18.30
2022-10-15T13:58:22.375Z,18.30
2022-10-15T14:01:17.377Z,18.20
2022-10-15T14:04:05.588Z,18.20
2022-10-15T14:06:57.151Z,18.10
2022-10-15T14:09:48.630Z,18.00
2022-10-15T14:12:36.487Z,18.00
2022-10-15T14:15:42.828Z,17.80
2022-10-15T14:18:45.234Z,17.70
2022-10-15T14:21:37.045Z,17.60
2022-10-15T14:24:31.099Z,17.40
2022-10-15T14:27:22.610Z,17.30
2022-10-15T14:30:16.619Z,17.30
2022-10-15T14:33:04.330Z,17.20
2022-10-15T14:36:07.830Z,17.20
2022-10-15T14:38:56.915Z,17.10
2022-10-15T14:41:57.506Z,17.00
2022-10-15T14:44:46.940Z,16.90
2022-10-15T14:47:34.633Z,16.80
2022-10-15T14:50:26.066Z,16.80
2022-10-15T14:53:21.231Z,16.70
2022-10-15T14:56:15.928Z,16.60
2022-10-15T14:59:04.451Z,16.50
2022-10-15T15:02:02.618Z,16.50
2022-10-15T15:05:08.143Z,16.40
2022-10-15T15:07:58.009Z,16.40
2022-10-15T15:13:43.624Z,16.20
2022-10-15T15:16:31.362Z,16.10
2022-10-15T15:19:18.943Z,16.10
2022-10-15T15:22:08.516Z,16.10
2022-10-15T15:24:56.929Z,16.10
2022-10-15T15:27:46.189Z,16.00
2022-10-15T15:30:35.708Z,15.90
2022-10-15T15:33:23.472Z,15.90
2022-10-15T15:36:17.658Z,15.90
2022-10-15T15:39:09.863Z,15.80
2022-10-15T15:41:57.808Z,15.70
2022-10-15T15:44:46.570Z,15.70
2022-10-15T15:50:29.930Z,15.70
2022-10-15T15:53:17.431Z,15.60
2022-10-15T15:56:04.781Z,15.60
2022-10-15T15:58:52.685Z,15.50
2022-10-15T16:01:41.502Z,15.50
2022-10-15T16:04:28.824Z,15.40
2022-10-15T16:07:19.384Z,15.40
2022-10-15T16:10:09.332Z,15.30
2022-10-15T16:12:57.322Z,15.20
2022-10-15T16:15:44.819Z,15.20
2022-10-15T16:18:33.672Z,15.10
2022-10-15T16:21:22.458Z,15.10
2022-10-15T16:24:09.648Z,15.10
2022-10-15T16:26:57.024Z,15.00
2022-10-15T16:29:44.308Z,15.00
2022-10-15T16:32:31.578Z,15.00
2022-10-15T16:35:20.273Z,15.00
2022-10-15T16:38:07.897Z,14.90
2022-10-15T16:40:55.206Z,14.90
2022-10-15T16:43:42.964Z,14.90
2022-10-15T16:46:30.615Z,14.90
2022-10-15T16:49:17.979Z,14.90
2022-10-15T16:52:06.883Z,14.90
2022-10-15T16:54:54.074Z,14.90
2022-10-15T16:57:41.780Z,14.90
2022-10-15T17:00:29.575Z,14.90
2022-10-15T17:03:17.572Z,14.90
2022-10-15T17:06:06.571Z,14.80
2022-10-15T17:08:56.367Z,14.90
2022-10-15T17:11:46.980Z,14.80
2022-10-15T17:14:35.264Z,14.80
2022-10-15T17:17:22.792Z,14.80
2022-10-15T17:20:10.883Z,14.80
2022-10-15T17:23:01.737Z,14.80
2022-10-15T17:25:50.690Z,14.80
2022-10-15T17:28:38.036Z,14.70
2022-10-15T17:31:26.858Z,14.70
2022-10-15T17:34:14.383Z,14.70
2022-10-15T17:37:02.196Z,14.70
2022-10-15T17:39:49.626Z,14.80
2022-10-15T17:42:42.640Z,14.70
2022-10-15T17:45:29.965Z,14.70
2022-10-15T17:48:17.684Z,14.70
2022-10-15T17:51:05.840Z,14.70
2022-10-15T17:53:53.769Z,14.70
2022-10-15T17:56:41.662Z,14.70
2022-10-15T17:59:30.544Z,14.70
2022-10-15T18:02:18.025Z,14.70
2022-10-15T18:05:07.795Z,14.70
2022-10-15T18:07:57.941Z,14.70
2022-10-15T18:10:51.998Z,14.70
2022-10-15T18:13:39.417Z,14.70
2022-10-15T18:16:29.125Z,14.70
2022-10-15T18:19:16.357Z,14.70
2022-10-15T18:22:03.785Z,14.60
2022-10-15T18:24:51.206Z,14.60
2022-10-15T18:27:38.436Z,14.60
2022-10-15T18:30:26.031Z,14.60
2022-10-15T18:33:14.971Z,14.60
2022-10-15T18:36:06.959Z,14.50
2022-10-15T18:38:54.728Z,14.50
2022-10-15T18:44:35.192Z,14.20
2022-10-15T18:47:22.354Z,14.10
2022-10-15T18:50:11.512Z,14.00
2022-10-15T18:53:03.173Z,13.90
2022-10-15T18:55:51.519Z,13.80
2022-10-15T18:58:39.372Z,13.70
2022-10-15T19:01:27.773Z,13.60
2022-10-15T19:04:16.332Z,13.50
2022-10-15T19:07:05.252Z,13.40
2022-10-15T19:09:53.087Z,13.30
2022-10-15T19:12:47.004Z,13.20
2022-10-15T19:15:36.804Z,13.10
2022-10-15T19:18:24.920Z,13.10
2022-10-15T19:21:13.058Z,13.10
2022-10-15T19:24:02.264Z,13.00
2022-10-15T19:26:51.250Z,13.00
2022-10-15T19:29:39.582Z,12.90
2022-10-15T19:32:27.561Z,12.90
2022-10-15T19:35:15.295Z,12.90
2022-10-15T19:38:03.449Z,12.90
2022-10-15T19:40:53.243Z,12.90
2022-10-15T19:43:43.901Z,12.80
2022-10-15T19:46:32.074Z,12.80
2022-10-15T19:49:19.780Z,12.80
2022-10-15T19:52:07.774Z,12.70
2022-10-15T19:54:56.952Z,12.60
2022-10-15T19:57:46.250Z,12.60
2022-10-15T20:00:34.018Z,12.50
2022-10-15T20:03:22.471Z,12.50
2022-10-15T20:06:10.179Z,12.40
2022-10-15T20:08:57.780Z,12.30
2022-10-15T20:11:45.815Z,12.30
2022-10-15T20:14:34.641Z,12.20
2022-10-15T20:17:22.273Z,12.10
2022-10-15T20:20:09.864Z,12.00
2022-10-15T20:22:57.397Z,11.90
2022-10-15T20:25:45.533Z,11.80
2022-10-15T20:28:33.210Z,11.70
2022-10-15T20:31:28.461Z,11.60
2022-10-15T20:34:16.441Z,11.50
2022-10-15T20:37:04.161Z,11.40
2022-10-15T20:39:51.687Z,11.30
2022-10-15T20:42:39.107Z,11.20
2022-10-15T20:45:27.806Z,11.10
2022-10-15T20:48:21.187Z,11.00
2022-10-15T20:51:10.786Z,10.80
2022-10-15T20:54:00.245Z,10.80
2022-10-15T20:56:48.177Z,10.70
2022-10-15T20:59:36.011Z,10.70
2022-10-15T21:02:24.408Z,10.60
2022-10-15T21:05:14.020Z,10.60
2022-10-15T21:08:02.059Z,10.60
2022-10-15T21:10:49.587Z,10.60
2022-10-15T21:13:37.642Z,10.60
2022-10-15T21:16:28.213Z,10.60
2022-10-15T21:19:16.272Z,10.50
2022-10-15T21:22:05.761Z,10.50
2022-10-15T21:24:53.624Z,10.40
2022-10-15T21:27:42.461Z,10.40
2022-10-15T21:30:30.340Z,10.30
2022-10-15T21:33:18.246Z,10.40
2022-10-15T21:36:14.155Z,10.40
2022-10-15T21:39:06.674Z,10.50
2022-10-15T21:41:54.266Z,10.50
2022-10-15T21:44:42.100Z,10.60
2022-10-15T21:47:30.037Z,10.60
2022-10-15T21:50:18.416Z,10.70
2022-10-15T21:53:06.261Z,10.70
2022-10-15T21:55:55.812Z,10.80
2022-10-15T21:58:43.903Z,10.80
2022-10-15T22:01:33.742Z,10.80
2022-10-15T22:04:21.792Z,10.80
2022-10-15T22:07:09.973Z,10.80
2022-10-15T22:09:57.588Z,10.90
2022-10-15T22:12:52.426Z,11.00
2022-10-15T22:15:40.139Z,11.20
2022-10-15T22:18:28.192Z,11.20
2022-10-15T22:21:18.441Z,11.30
2022-10-15T22:24:08.129Z,11.40
2022-10-15T22:26:56.087Z,11.50
2022-10-15T22:29:45.187Z,11.50
2022-10-15T22:32:33.003Z,11.60
2022-10-15T22:35:21.614Z,11.60
2022-10-15T22:38:09.133Z,11.70
2022-10-15T22:40:56.926Z,11.70
2022-10-15T22:43:44.924Z,11.80
2022-10-15T22:46:34.937Z,11.80
2022-10-15T22:49:22.849Z,11.80
2022-10-15T22:52:10.362Z,11.90
2022-10-15T22:54:57.743Z,11.90
2022-10-15T22:57:45.410Z,11.90
2022-10-15T23:00:32.770Z,11.90
2022-10-15T23:03:21.696Z,11.90
2022-10-15T23:06:09.347Z,11.90
2022-10-15T23:08:58.097Z,11.90
2022-10-15T23:11:46.070Z,11.90
2022-10-15T23:14:33.627Z,11.90
2022-10-15T23:17:21.189Z,11.80
2022-10-15T23:20:10.591Z,11.70
2022-10-15T23:22:58.164Z,11.60
2022-10-15T23:25:45.634Z,11.50
2022-10-15T23:28:32.925Z,11.40
2022-10-15T23:31:21.871Z,11.30
2022-10-15T23:34:12.938Z,11.20
2022-10-15T23:37:01.889Z,11.20
2022-10-15T23:39:50.067Z,11.10
2022-10-15T23:42:37.513Z,11.10
2022-10-15T23:45:25.226Z,11.00
2022-10-15T23:48:13.159Z,11.00
2022-10-15T23:51:03.390Z,10.90
2022-10-15T23:53:52.817Z,10.90
2022-10-15T23:56:40.033Z,10.90
2022-10-15T23:59:27.271Z,10.90
